Flight Briefing for CPX306

Departure Arrival
Chicago/Rockford International Airport (KRFD)
Click to view FAA NOTAMS
Seattle-Tacoma International Airport (KSEA)
Click to view FAA NOTAMS
Departure Time Arrival Time
N/A N/A
Aircraft Distance
B767-300BDSF 1684nm
Departure METAR Arrival METAR
KRFD 252354Z 08009KT 10SM FEW250 05/M13 A3034 RMK AO2 SLP280 T00501133 10083 20050 53008 KSEA 252353Z 24015KT 10SM -RA SCT060 OVC090 11/05 A2988 RMK AO2 RAB50 SLP125 P0000 60000 T01060050 10156 20106 53004
Suggested Route
RFD COTON J30 ODI KP90G KP09A DIK KU15Q GEG GLASR1


View recent IFR Routes data
Notes



Charts and Procedures

Charts for KRFD
No chart available
Charts for KSEA
No chart available

Windy.com Weather Map